sensor_id;sensor_type;location;lat;lon;timestamp;P1;durP1;ratioP1;P2;durP2;ratioP2
6259;SDS011;3163;51.516;4.000;2023-04-08T00:01:19;2.97;;;0.93;;
6259;SDS011;3163;51.516;4.000;2023-04-08T00:03:45;0.97;;;0.83;;
6259;SDS011;3163;51.516;4.000;2023-04-08T00:06:10;2.87;;;0.97;;
6259;SDS011;3163;51.516;4.000;2023-04-08T00:08:36;1.13;;;1.03;;
6259;SDS011;3163;51.516;4.000;2023-04-08T00:11:01;2.63;;;1.30;;
6259;SDS011;3163;51.516;4.000;2023-04-08T00:13:27;2.53;;;1.23;;
6259;SDS011;3163;51.516;4.000;2023-04-08T00:15:53;1.53;;;0.90;;
6259;SDS011;3163;51.516;4.000;2023-04-08T00:18:18;1.97;;;1.10;;
6259;SDS011;3163;51.516;4.000;2023-04-08T00:20:44;4.77;;;1.00;;
6259;SDS011;3163;51.516;4.000;2023-04-08T00:23:10;1.30;;;1.10;;
6259;SDS011;3163;51.516;4.000;2023-04-08T00:25:36;5.70;;;1.37;;
6259;SDS011;3163;51.516;4.000;2023-04-08T00:28:01;2.97;;;0.90;;
6259;SDS011;3163;51.516;4.000;2023-04-08T00:30:27;3.20;;;1.20;;
6259;SDS011;3163;51.516;4.000;2023-04-08T00:32:53;2.60;;;0.93;;
6259;SDS011;3163;51.516;4.000;2023-04-08T00:35:19;2.53;;;1.23;;
6259;SDS011;3163;51.516;4.000;2023-04-08T00:37:44;3.43;;;0.90;;
6259;SDS011;3163;51.516;4.000;2023-04-08T00:40:10;5.77;;;1.27;;
6259;SDS011;3163;51.516;4.000;2023-04-08T00:42:36;1.40;;;1.20;;
6259;SDS011;3163;51.516;4.000;2023-04-08T00:45:02;4.70;;;1.43;;
6259;SDS011;3163;51.516;4.000;2023-04-08T00:47:28;2.63;;;1.63;;
6259;SDS011;3163;51.516;4.000;2023-04-08T00:49:55;4.50;;;1.50;;
6259;SDS011;3163;51.516;4.000;2023-04-08T00:52:21;7.00;;;1.13;;
6259;SDS011;3163;51.516;4.000;2023-04-08T00:54:47;0.80;;;0.77;;
6259;SDS011;3163;51.516;4.000;2023-04-08T00:57:12;2.27;;;1.80;;
6259;SDS011;3163;51.516;4.000;2023-04-08T00:59:38;2.13;;;0.80;;
6259;SDS011;3163;51.516;4.000;2023-04-08T01:02:13;1.37;;;0.80;;
6259;SDS011;3163;51.516;4.000;2023-04-08T01:04:48;1.97;;;1.10;;
6259;SDS011;3163;51.516;4.000;2023-04-08T01:10:22;7.30;;;1.20;;
6259;SDS011;3163;51.516;4.000;2023-04-08T01:13:02;0.80;;;0.77;;
6259;SDS011;3163;51.516;4.000;2023-04-08T01:15:32;1.87;;;1.37;;
6259;SDS011;3163;51.516;4.000;2023-04-08T01:18:01;2.90;;;1.30;;
6259;SDS011;3163;51.516;4.000;2023-04-08T01:20:31;2.73;;;1.60;;
6259;SDS011;3163;51.516;4.000;2023-04-08T01:25:55;2.40;;;1.30;;
6259;SDS011;3163;51.516;4.000;2023-04-08T01:28:22;3.03;;;1.17;;
6259;SDS011;3163;51.516;4.000;2023-04-08T01:30:52;2.50;;;0.87;;
6259;SDS011;3163;51.516;4.000;2023-04-08T01:33:20;3.10;;;1.20;;
6259;SDS011;3163;51.516;4.000;2023-04-08T01:35:47;1.73;;;1.37;;
6259;SDS011;3163;51.516;4.000;2023-04-08T01:38:14;2.13;;;1.07;;
6259;SDS011;3163;51.516;4.000;2023-04-08T01:40:45;5.03;;;1.10;;
6259;SDS011;3163;51.516;4.000;2023-04-08T01:43:12;2.43;;;1.27;;
6259;SDS011;3163;51.516;4.000;2023-04-08T01:45:41;4.17;;;1.43;;
6259;SDS011;3163;51.516;4.000;2023-04-08T01:48:08;4.33;;;1.37;;
6259;SDS011;3163;51.516;4.000;2023-04-08T01:50:36;2.93;;;1.07;;
6259;SDS011;3163;51.516;4.000;2023-04-08T01:53:02;3.43;;;0.83;;
6259;SDS011;3163;51.516;4.000;2023-04-08T01:55:30;4.70;;;0.93;;
6259;SDS011;3163;51.516;4.000;2023-04-08T01:57:58;4.83;;;0.93;;
6259;SDS011;3163;51.516;4.000;2023-04-08T02:00:26;1.50;;;1.00;;
6259;SDS011;3163;51.516;4.000;2023-04-08T02:02:53;2.30;;;1.13;;
6259;SDS011;3163;51.516;4.000;2023-04-08T02:05:21;1.97;;;1.10;;
6259;SDS011;3163;51.516;4.000;2023-04-08T02:07:47;4.83;;;1.33;;
6259;SDS011;3163;51.516;4.000;2023-04-08T02:10:12;1.70;;;0.83;;
6259;SDS011;3163;51.516;4.000;2023-04-08T02:12:38;6.10;;;1.10;;
6259;SDS011;3163;51.516;4.000;2023-04-08T02:15:04;4.63;;;1.60;;
6259;SDS011;3163;51.516;4.000;2023-04-08T02:17:32;1.73;;;1.07;;
6259;SDS011;3163;51.516;4.000;2023-04-08T02:20:10;2.13;;;1.10;;
6259;SDS011;3163;51.516;4.000;2023-04-08T02:23:09;1.47;;;1.37;;
6259;SDS011;3163;51.516;4.000;2023-04-08T02:25:41;2.17;;;1.10;;
6259;SDS011;3163;51.516;4.000;2023-04-08T02:28:09;3.63;;;1.03;;
6259;SDS011;3163;51.516;4.000;2023-04-08T02:30:36;4.27;;;1.47;;
6259;SDS011;3163;51.516;4.000;2023-04-08T02:33:05;3.63;;;1.50;;
6259;SDS011;3163;51.516;4.000;2023-04-08T02:35:32;1.63;;;1.07;;
6259;SDS011;3163;51.516;4.000;2023-04-08T02:37:58;2.20;;;0.97;;
6259;SDS011;3163;51.516;4.000;2023-04-08T02:42:52;2.83;;;1.27;;
6259;SDS011;3163;51.516;4.000;2023-04-08T02:45:18;2.13;;;1.20;;
6259;SDS011;3163;51.516;4.000;2023-04-08T02:47:44;3.27;;;1.73;;
6259;SDS011;3163;51.516;4.000;2023-04-08T02:50:09;4.03;;;1.33;;
6259;SDS011;3163;51.516;4.000;2023-04-08T02:52:35;3.43;;;1.50;;
6259;SDS011;3163;51.516;4.000;2023-04-08T02:55:01;2.47;;;1.40;;
6259;SDS011;3163;51.516;4.000;2023-04-08T02:57:27;3.07;;;1.13;;
6259;SDS011;3163;51.516;4.000;2023-04-08T02:59:52;4.73;;;1.53;;
6259;SDS011;3163;51.516;4.000;2023-04-08T03:02:18;1.67;;;1.17;;
6259;SDS011;3163;51.516;4.000;2023-04-08T03:04:43;2.33;;;1.63;;
6259;SDS011;3163;51.516;4.000;2023-04-08T03:07:09;2.40;;;1.10;;
6259;SDS011;3163;51.516;4.000;2023-04-08T03:09:34;2.80;;;1.47;;
6259;SDS011;3163;51.516;4.000;2023-04-08T03:12:00;5.20;;;1.60;;
6259;SDS011;3163;51.516;4.000;2023-04-08T03:14:26;5.30;;;1.50;;
6259;SDS011;3163;51.516;4.000;2023-04-08T03:16:52;2.13;;;1.00;;
6259;SDS011;3163;51.516;4.000;2023-04-08T03:19:18;2.60;;;1.30;;
6259;SDS011;3163;51.516;4.000;2023-04-08T03:21:44;2.77;;;1.33;;
6259;SDS011;3163;51.516;4.000;2023-04-08T03:24:09;7.73;;;2.23;;
6259;SDS011;3163;51.516;4.000;2023-04-08T03:26:35;1.97;;;1.27;;
6259;SDS011;3163;51.516;4.000;2023-04-08T03:29:00;3.40;;;1.50;;
6259;SDS011;3163;51.516;4.000;2023-04-08T03:31:26;1.73;;;0.97;;
6259;SDS011;3163;51.516;4.000;2023-04-08T03:33:51;2.77;;;1.20;;
6259;SDS011;3163;51.516;4.000;2023-04-08T03:36:17;1.83;;;1.33;;
6259;SDS011;3163;51.516;4.000;2023-04-08T03:38:43;4.57;;;1.47;;
6259;SDS011;3163;51.516;4.000;2023-04-08T03:41:08;1.63;;;1.40;;
6259;SDS011;3163;51.516;4.000;2023-04-08T03:43:34;1.90;;;1.10;;
6259;SDS011;3163;51.516;4.000;2023-04-08T03:46:00;3.33;;;1.50;;
6259;SDS011;3163;51.516;4.000;2023-04-08T03:48:25;2.73;;;1.37;;
6259;SDS011;3163;51.516;4.000;2023-04-08T03:50:51;2.20;;;1.20;;
6259;SDS011;3163;51.516;4.000;2023-04-08T03:53:17;2.47;;;1.30;;
6259;SDS011;3163;51.516;4.000;2023-04-08T03:55:43;1.37;;;1.20;;
6259;SDS011;3163;51.516;4.000;2023-04-08T03:58:09;1.67;;;1.20;;
6259;SDS011;3163;51.516;4.000;2023-04-08T04:00:34;1.43;;;1.10;;
6259;SDS011;3163;51.516;4.000;2023-04-08T04:03:01;2.70;;;1.43;;
6259;SDS011;3163;51.516;4.000;2023-04-08T04:05:26;5.67;;;1.33;;
6259;SDS011;3163;51.516;4.000;2023-04-08T04:07:52;1.80;;;1.10;;
6259;SDS011;3163;51.516;4.000;2023-04-08T04:10:18;3.50;;;1.47;;
6259;SDS011;3163;51.516;4.000;2023-04-08T04:12:44;4.33;;;1.30;;
6259;SDS011;3163;51.516;4.000;2023-04-08T04:15:11;1.33;;;1.10;;
6259;SDS011;3163;51.516;4.000;2023-04-08T04:17:36;3.63;;;1.40;;
6259;SDS011;3163;51.516;4.000;2023-04-08T04:20:03;1.63;;;1.40;;
6259;SDS011;3163;51.516;4.000;2023-04-08T04:22:30;3.97;;;1.47;;
6259;SDS011;3163;51.516;4.000;2023-04-08T04:24:55;4.73;;;1.23;;
6259;SDS011;3163;51.516;4.000;2023-04-08T04:27:21;2.00;;;1.17;;
6259;SDS011;3163;51.516;4.000;2023-04-08T04:29:46;2.37;;;1.10;;
6259;SDS011;3163;51.516;4.000;2023-04-08T04:32:12;1.20;;;1.10;;
6259;SDS011;3163;51.516;4.000;2023-04-08T04:34:38;3.57;;;1.70;;
6259;SDS011;3163;51.516;4.000;2023-04-08T04:37:03;1.70;;;1.50;;
6259;SDS011;3163;51.516;4.000;2023-04-08T04:39:29;4.30;;;1.20;;
6259;SDS011;3163;51.516;4.000;2023-04-08T04:41:55;3.23;;;1.40;;
6259;SDS011;3163;51.516;4.000;2023-04-08T04:44:20;2.77;;;1.40;;
6259;SDS011;3163;51.516;4.000;2023-04-08T04:46:46;3.90;;;1.20;;
6259;SDS011;3163;51.516;4.000;2023-04-08T04:49:11;1.67;;;1.27;;
6259;SDS011;3163;51.516;4.000;2023-04-08T04:51:37;3.33;;;1.10;;
6259;SDS011;3163;51.516;4.000;2023-04-08T04:54:04;2.50;;;1.27;;
6259;SDS011;3163;51.516;4.000;2023-04-08T04:56:30;4.93;;;1.80;;
6259;SDS011;3163;51.516;4.000;2023-04-08T04:58:55;2.40;;;1.17;;
6259;SDS011;3163;51.516;4.000;2023-04-08T05:01:21;2.50;;;1.30;;
6259;SDS011;3163;51.516;4.000;2023-04-08T05:03:46;2.03;;;1.10;;
6259;SDS011;3163;51.516;4.000;2023-04-08T05:06:12;3.20;;;1.70;;
6259;SDS011;3163;51.516;4.000;2023-04-08T05:08:37;3.07;;;1.50;;
6259;SDS011;3163;51.516;4.000;2023-04-08T05:11:03;2.70;;;1.23;;
6259;SDS011;3163;51.516;4.000;2023-04-08T05:13:32;2.30;;;1.20;;
6259;SDS011;3163;51.516;4.000;2023-04-08T05:15:58;3.67;;;1.47;;
6259;SDS011;3163;51.516;4.000;2023-04-08T05:18:24;5.33;;;2.47;;
6259;SDS011;3163;51.516;4.000;2023-04-08T05:20:49;4.07;;;2.57;;
6259;SDS011;3163;51.516;4.000;2023-04-08T05:23:15;1.90;;;1.13;;
6259;SDS011;3163;51.516;4.000;2023-04-08T05:25:40;2.57;;;1.40;;
6259;SDS011;3163;51.516;4.000;2023-04-08T05:28:06;1.50;;;1.40;;
6259;SDS011;3163;51.516;4.000;2023-04-08T05:30:31;3.20;;;1.70;;
6259;SDS011;3163;51.516;4.000;2023-04-08T05:32:57;3.10;;;1.40;;
6259;SDS011;3163;51.516;4.000;2023-04-08T05:35:23;3.93;;;1.53;;
6259;SDS011;3163;51.516;4.000;2023-04-08T05:37:48;1.93;;;1.50;;
6259;SDS011;3163;51.516;4.000;2023-04-08T05:40:14;2.17;;;1.47;;
6259;SDS011;3163;51.516;4.000;2023-04-08T05:42:39;2.63;;;1.10;;
6259;SDS011;3163;51.516;4.000;2023-04-08T05:45:06;2.37;;;1.43;;
6259;SDS011;3163;51.516;4.000;2023-04-08T05:47:32;3.17;;;1.50;;
6259;SDS011;3163;51.516;4.000;2023-04-08T05:49:58;4.40;;;1.80;;
6259;SDS011;3163;51.516;4.000;2023-04-08T05:52:23;1.50;;;1.37;;
6259;SDS011;3163;51.516;4.000;2023-04-08T05:54:49;2.93;;;1.40;;
6259;SDS011;3163;51.516;4.000;2023-04-08T05:57:15;2.37;;;1.53;;
6259;SDS011;3163;51.516;4.000;2023-04-08T05:59:41;3.10;;;1.50;;
6259;SDS011;3163;51.516;4.000;2023-04-08T06:02:06;2.33;;;1.67;;
6259;SDS011;3163;51.516;4.000;2023-04-08T06:04:32;2.97;;;1.80;;
6259;SDS011;3163;51.516;4.000;2023-04-08T06:06:57;2.57;;;1.47;;
6259;SDS011;3163;51.516;4.000;2023-04-08T06:09:25;2.03;;;1.93;;
6259;SDS011;3163;51.516;4.000;2023-04-08T06:11:50;2.03;;;1.73;;
6259;SDS011;3163;51.516;4.000;2023-04-08T06:14:16;2.87;;;1.63;;
6259;SDS011;3163;51.516;4.000;2023-04-08T06:16:42;2.77;;;1.33;;
6259;SDS011;3163;51.516;4.000;2023-04-08T06:19:07;2.00;;;1.47;;
6259;SDS011;3163;51.516;4.000;2023-04-08T06:21:33;1.77;;;1.33;;
6259;SDS011;3163;51.516;4.000;2023-04-08T06:23:59;6.23;;;1.60;;
6259;SDS011;3163;51.516;4.000;2023-04-08T06:26:24;2.10;;;1.50;;
6259;SDS011;3163;51.516;4.000;2023-04-08T06:28:50;4.27;;;2.00;;
6259;SDS011;3163;51.516;4.000;2023-04-08T06:31:16;2.43;;;1.67;;
6259;SDS011;3163;51.516;4.000;2023-04-08T06:33:41;1.57;;;1.43;;
6259;SDS011;3163;51.516;4.000;2023-04-08T06:36:07;1.60;;;1.30;;
6259;SDS011;3163;51.516;4.000;2023-04-08T06:38:33;1.67;;;1.40;;
6259;SDS011;3163;51.516;4.000;2023-04-08T06:41:05;3.40;;;1.77;;
6259;SDS011;3163;51.516;4.000;2023-04-08T06:43:32;2.20;;;1.20;;
6259;SDS011;3163;51.516;4.000;2023-04-08T06:45:58;3.10;;;1.60;;
6259;SDS011;3163;51.516;4.000;2023-04-08T06:48:24;2.57;;;1.60;;
6259;SDS011;3163;51.516;4.000;2023-04-08T06:50:57;1.30;;;1.20;;
6259;SDS011;3163;51.516;4.000;2023-04-08T06:53:24;3.27;;;1.23;;
6259;SDS011;3163;51.516;4.000;2023-04-08T06:55:50;2.17;;;1.43;;
6259;SDS011;3163;51.516;4.000;2023-04-08T06:58:16;1.27;;;1.07;;
6259;SDS011;3163;51.516;4.000;2023-04-08T07:00:42;1.90;;;1.40;;
6259;SDS011;3163;51.516;4.000;2023-04-08T07:03:07;2.73;;;1.33;;
6259;SDS011;3163;51.516;4.000;2023-04-08T07:05:36;3.03;;;1.40;;
6259;SDS011;3163;51.516;4.000;2023-04-08T07:08:03;2.60;;;2.10;;
6259;SDS011;3163;51.516;4.000;2023-04-08T07:10:29;2.30;;;1.57;;
6259;SDS011;3163;51.516;4.000;2023-04-08T07:12:54;1.80;;;1.37;;
6259;SDS011;3163;51.516;4.000;2023-04-08T07:15:20;2.40;;;1.30;;
6259;SDS011;3163;51.516;4.000;2023-04-08T07:17:46;6.40;;;2.10;;
6259;SDS011;3163;51.516;4.000;2023-04-08T07:20:12;2.00;;;1.53;;
6259;SDS011;3163;51.516;4.000;2023-04-08T07:22:38;2.50;;;1.10;;
6259;SDS011;3163;51.516;4.000;2023-04-08T07:25:04;0.63;;;0.63;;
6259;SDS011;3163;51.516;4.000;2023-04-08T07:27:30;4.20;;;2.20;;
6259;SDS011;3163;51.516;4.000;2023-04-08T07:30:00;2.77;;;1.73;;
6259;SDS011;3163;51.516;4.000;2023-04-08T07:32:26;2.17;;;1.17;;
6259;SDS011;3163;51.516;4.000;2023-04-08T07:34:52;1.53;;;1.43;;
6259;SDS011;3163;51.516;4.000;2023-04-08T07:37:18;1.17;;;1.07;;
6259;SDS011;3163;51.516;4.000;2023-04-08T07:39:43;1.07;;;1.07;;
6259;SDS011;3163;51.516;4.000;2023-04-08T07:42:09;1.60;;;1.50;;
6259;SDS011;3163;51.516;4.000;2023-04-08T07:44:35;1.00;;;0.97;;
6259;SDS011;3163;51.516;4.000;2023-04-08T07:47:00;1.53;;;1.43;;
6259;SDS011;3163;51.516;4.000;2023-04-08T07:49:26;1.93;;;1.23;;
6259;SDS011;3163;51.516;4.000;2023-04-08T07:51:51;1.20;;;1.10;;
6259;SDS011;3163;51.516;4.000;2023-04-08T07:54:17;1.57;;;1.17;;
6259;SDS011;3163;51.516;4.000;2023-04-08T07:56:43;2.43;;;1.40;;
6259;SDS011;3163;51.516;4.000;2023-04-08T07:59:09;2.73;;;2.03;;
6259;SDS011;3163;51.516;4.000;2023-04-08T08:01:35;3.93;;;1.90;;
6259;SDS011;3163;51.516;4.000;2023-04-08T08:04:01;1.97;;;1.70;;
6259;SDS011;3163;51.516;4.000;2023-04-08T08:06:27;1.13;;;1.00;;
6259;SDS011;3163;51.516;4.000;2023-04-08T08:08:53;3.33;;;2.53;;
6259;SDS011;3163;51.516;4.000;2023-04-08T08:11:18;3.00;;;2.33;;
6259;SDS011;3163;51.516;4.000;2023-04-08T08:13:45;3.73;;;2.47;;
6259;SDS011;3163;51.516;4.000;2023-04-08T08:16:11;5.13;;;2.87;;
6259;SDS011;3163;51.516;4.000;2023-04-08T08:18:37;6.93;;;2.60;;
6259;SDS011;3163;51.516;4.000;2023-04-08T08:21:04;3.77;;;2.27;;
6259;SDS011;3163;51.516;4.000;2023-04-08T08:23:29;2.67;;;2.47;;
6259;SDS011;3163;51.516;4.000;2023-04-08T08:25:59;8.47;;;3.03;;
6259;SDS011;3163;51.516;4.000;2023-04-08T08:28:30;2.63;;;2.40;;
6259;SDS011;3163;51.516;4.000;2023-04-08T08:30:56;3.30;;;1.93;;
6259;SDS011;3163;51.516;4.000;2023-04-08T08:33:22;6.33;;;2.80;;
6259;SDS011;3163;51.516;4.000;2023-04-08T08:35:48;2.77;;;2.10;;
6259;SDS011;3163;51.516;4.000;2023-04-08T08:38:13;4.77;;;2.20;;
6259;SDS011;3163;51.516;4.000;2023-04-08T08:40:39;3.57;;;2.47;;
6259;SDS011;3163;51.516;4.000;2023-04-08T08:43:05;2.73;;;2.53;;
6259;SDS011;3163;51.516;4.000;2023-04-08T08:45:31;3.20;;;2.57;;
6259;SDS011;3163;51.516;4.000;2023-04-08T08:47:57;1.93;;;1.70;;
6259;SDS011;3163;51.516;4.000;2023-04-08T08:50:23;1.90;;;1.80;;
6259;SDS011;3163;51.516;4.000;2023-04-08T08:52:49;0.77;;;0.77;;
6259;SDS011;3163;51.516;4.000;2023-04-08T08:55:19;2.63;;;2.00;;
6259;SDS011;3163;51.516;4.000;2023-04-08T08:57:45;8.53;;;2.60;;
6259;SDS011;3163;51.516;4.000;2023-04-08T09:00:14;3.00;;;2.13;;
6259;SDS011;3163;51.516;4.000;2023-04-08T09:02:40;2.43;;;1.93;;
6259;SDS011;3163;51.516;4.000;2023-04-08T09:05:06;4.07;;;2.53;;
6259;SDS011;3163;51.516;4.000;2023-04-08T09:07:35;5.23;;;2.37;;
6259;SDS011;3163;51.516;4.000;2023-04-08T09:10:04;7.03;;;2.90;;
6259;SDS011;3163;51.516;4.000;2023-04-08T09:12:30;3.73;;;2.63;;
6259;SDS011;3163;51.516;4.000;2023-04-08T09:15:06;3.73;;;3.10;;
6259;SDS011;3163;51.516;4.000;2023-04-08T09:17:36;7.53;;;3.63;;
6259;SDS011;3163;51.516;4.000;2023-04-08T09:20:03;5.30;;;2.47;;
6259;SDS011;3163;51.516;4.000;2023-04-08T09:22:54;2.97;;;2.10;;
6259;SDS011;3163;51.516;4.000;2023-04-08T09:25:21;4.33;;;2.90;;
6259;SDS011;3163;51.516;4.000;2023-04-08T09:27:48;2.60;;;2.27;;
6259;SDS011;3163;51.516;4.000;2023-04-08T09:30:14;2.93;;;1.90;;
6259;SDS011;3163;51.516;4.000;2023-04-08T09:35:15;4.00;;;3.30;;
6259;SDS011;3163;51.516;4.000;2023-04-08T09:37:45;5.33;;;3.03;;
6259;SDS011;3163;51.516;4.000;2023-04-08T09:40:10;4.33;;;3.37;;
6259;SDS011;3163;51.516;4.000;2023-04-08T09:42:38;5.67;;;3.60;;
6259;SDS011;3163;51.516;4.000;2023-04-08T09:45:05;3.83;;;2.90;;
6259;SDS011;3163;51.516;4.000;2023-04-08T09:47:34;6.53;;;4.30;;
6259;SDS011;3163;51.516;4.000;2023-04-08T09:50:08;4.93;;;4.33;;
6259;SDS011;3163;51.516;4.000;2023-04-08T09:52:44;7.33;;;4.70;;
6259;SDS011;3163;51.516;4.000;2023-04-08T09:55:16;4.73;;;3.50;;
6259;SDS011;3163;51.516;4.000;2023-04-08T10:00:29;5.50;;;3.83;;
6259;SDS011;3163;51.516;4.000;2023-04-08T10:05:35;7.87;;;4.00;;
6259;SDS011;3163;51.516;4.000;2023-04-08T10:08:02;4.13;;;3.03;;
6259;SDS011;3163;51.516;4.000;2023-04-08T10:10:29;6.50;;;4.93;;
6259;SDS011;3163;51.516;4.000;2023-04-08T10:12:55;6.93;;;3.67;;
6259;SDS011;3163;51.516;4.000;2023-04-08T10:17:50;4.53;;;3.77;;
6259;SDS011;3163;51.516;4.000;2023-04-08T10:20:39;7.17;;;4.33;;
6259;SDS011;3163;51.516;4.000;2023-04-08T10:23:06;7.90;;;4.50;;
6259;SDS011;3163;51.516;4.000;2023-04-08T10:25:38;5.47;;;3.87;;
6259;SDS011;3163;51.516;4.000;2023-04-08T10:33:10;7.27;;;4.00;;
6259;SDS011;3163;51.516;4.000;2023-04-08T10:36:25;7.30;;;4.67;;
6259;SDS011;3163;51.516;4.000;2023-04-08T10:38:33;7.10;;;5.20;;
6259;SDS011;3163;51.516;4.000;2023-04-08T10:40:59;8.60;;;5.77;;
6259;SDS011;3163;51.516;4.000;2023-04-08T10:43:27;8.07;;;5.00;;
6259;SDS011;3163;51.516;4.000;2023-04-08T10:45:56;7.07;;;4.67;;
6259;SDS011;3163;51.516;4.000;2023-04-08T10:48:23;6.63;;;4.80;;
6259;SDS011;3163;51.516;4.000;2023-04-08T10:50:59;7.47;;;5.13;;
6259;SDS011;3163;51.516;4.000;2023-04-08T10:53:35;5.33;;;4.30;;
6259;SDS011;3163;51.516;4.000;2023-04-08T10:56:10;22.27;;;12.63;;
6259;SDS011;3163;51.516;4.000;2023-04-08T10:58:52;8.70;;;5.40;;
6259;SDS011;3163;51.516;4.000;2023-04-08T11:01:20;5.23;;;3.60;;
6259;SDS011;3163;51.516;4.000;2023-04-08T11:03:45;9.03;;;6.27;;
6259;SDS011;3163;51.516;4.000;2023-04-08T11:06:11;6.67;;;5.37;;
6259;SDS011;3163;51.516;4.000;2023-04-08T11:08:37;9.03;;;6.93;;
6259;SDS011;3163;51.516;4.000;2023-04-08T11:11:03;6.17;;;4.33;;
6259;SDS011;3163;51.516;4.000;2023-04-08T11:13:33;6.97;;;4.50;;
6259;SDS011;3163;51.516;4.000;2023-04-08T11:16:00;8.77;;;5.83;;
6259;SDS011;3163;51.516;4.000;2023-04-08T11:18:26;17.17;;;9.40;;
6259;SDS011;3163;51.516;4.000;2023-04-08T11:20:53;19.63;;;12.57;;
6259;SDS011;3163;51.516;4.000;2023-04-08T11:23:19;18.90;;;11.47;;
6259;SDS011;3163;51.516;4.000;2023-04-08T11:25:46;16.30;;;9.70;;
6259;SDS011;3163;51.516;4.000;2023-04-08T11:28:12;18.47;;;10.90;;
6259;SDS011;3163;51.516;4.000;2023-04-08T11:30:39;14.73;;;9.90;;
6259;SDS011;3163;51.516;4.000;2023-04-08T11:33:09;17.43;;;10.17;;
6259;SDS011;3163;51.516;4.000;2023-04-08T11:35:38;17.27;;;9.97;;
6259;SDS011;3163;51.516;4.000;2023-04-08T11:38:05;12.60;;;9.37;;
6259;SDS011;3163;51.516;4.000;2023-04-08T11:40:32;14.97;;;10.13;;
6259;SDS011;3163;51.516;4.000;2023-04-08T11:42:57;14.47;;;8.50;;
6259;SDS011;3163;51.516;4.000;2023-04-08T11:45:23;12.83;;;8.60;;
6259;SDS011;3163;51.516;4.000;2023-04-08T11:47:49;15.73;;;10.80;;
6259;SDS011;3163;51.516;4.000;2023-04-08T11:50:24;14.80;;;10.10;;
6259;SDS011;3163;51.516;4.000;2023-04-08T11:52:50;13.77;;;8.93;;
6259;SDS011;3163;51.516;4.000;2023-04-08T11:55:27;11.10;;;6.73;;
6259;SDS011;3163;51.516;4.000;2023-04-08T11:57:54;10.33;;;8.00;;
6259;SDS011;3163;51.516;4.000;2023-04-08T12:00:21;10.33;;;7.33;;
6259;SDS011;3163;51.516;4.000;2023-04-08T12:02:47;10.50;;;7.00;;
6259;SDS011;3163;51.516;4.000;2023-04-08T12:05:13;13.20;;;7.87;;
6259;SDS011;3163;51.516;4.000;2023-04-08T12:07:40;13.13;;;9.70;;
6259;SDS011;3163;51.516;4.000;2023-04-08T12:10:06;14.07;;;10.10;;
6259;SDS011;3163;51.516;4.000;2023-04-08T12:12:33;11.90;;;9.43;;
6259;SDS011;3163;51.516;4.000;2023-04-08T12:14:58;16.33;;;10.93;;
6259;SDS011;3163;51.516;4.000;2023-04-08T12:17:24;16.07;;;12.00;;
6259;SDS011;3163;51.516;4.000;2023-04-08T12:19:49;14.20;;;10.17;;
6259;SDS011;3163;51.516;4.000;2023-04-08T12:22:15;12.00;;;9.23;;
6259;SDS011;3163;51.516;4.000;2023-04-08T12:24:41;10.63;;;7.90;;
6259;SDS011;3163;51.516;4.000;2023-04-08T12:27:06;11.07;;;8.63;;
6259;SDS011;3163;51.516;4.000;2023-04-08T12:29:32;10.53;;;8.03;;
6259;SDS011;3163;51.516;4.000;2023-04-08T12:31:58;10.23;;;8.03;;
6259;SDS011;3163;51.516;4.000;2023-04-08T12:34:24;13.00;;;10.20;;
6259;SDS011;3163;51.516;4.000;2023-04-08T12:36:49;11.00;;;7.20;;
6259;SDS011;3163;51.516;4.000;2023-04-08T12:39:15;12.03;;;8.27;;
6259;SDS011;3163;51.516;4.000;2023-04-08T12:41:41;10.47;;;7.80;;
6259;SDS011;3163;51.516;4.000;2023-04-08T12:44:06;15.33;;;10.00;;
6259;SDS011;3163;51.516;4.000;2023-04-08T12:46:32;15.27;;;10.83;;
6259;SDS011;3163;51.516;4.000;2023-04-08T12:48:59;11.97;;;8.40;;
6259;SDS011;3163;51.516;4.000;2023-04-08T12:51:24;12.00;;;8.43;;
6259;SDS011;3163;51.516;4.000;2023-04-08T12:53:50;14.13;;;9.07;;
6259;SDS011;3163;51.516;4.000;2023-04-08T12:56:16;14.73;;;10.90;;
6259;SDS011;3163;51.516;4.000;2023-04-08T12:58:42;11.60;;;8.80;;
6259;SDS011;3163;51.516;4.000;2023-04-08T13:01:07;12.33;;;9.17;;
6259;SDS011;3163;51.516;4.000;2023-04-08T13:03:33;15.80;;;9.07;;
6259;SDS011;3163;51.516;4.000;2023-04-08T13:06:00;10.83;;;8.43;;
6259;SDS011;3163;51.516;4.000;2023-04-08T13:08:25;13.90;;;9.83;;
6259;SDS011;3163;51.516;4.000;2023-04-08T13:10:51;10.63;;;7.37;;
6259;SDS011;3163;51.516;4.000;2023-04-08T13:13:17;12.47;;;9.07;;
6259;SDS011;3163;51.516;4.000;2023-04-08T13:15:43;10.93;;;9.37;;
6259;SDS011;3163;51.516;4.000;2023-04-08T13:18:08;12.10;;;7.97;;
6259;SDS011;3163;51.516;4.000;2023-04-08T13:20:34;11.97;;;7.70;;
6259;SDS011;3163;51.516;4.000;2023-04-08T13:23:00;10.80;;;8.37;;
6259;SDS011;3163;51.516;4.000;2023-04-08T13:25:26;14.20;;;10.70;;
6259;SDS011;3163;51.516;4.000;2023-04-08T13:27:51;15.97;;;11.57;;
6259;SDS011;3163;51.516;4.000;2023-04-08T13:30:17;12.23;;;9.23;;
6259;SDS011;3163;51.516;4.000;2023-04-08T13:32:43;11.20;;;8.07;;
6259;SDS011;3163;51.516;4.000;2023-04-08T13:35:08;15.07;;;8.43;;
6259;SDS011;3163;51.516;4.000;2023-04-08T13:37:34;10.17;;;8.50;;
6259;SDS011;3163;51.516;4.000;2023-04-08T13:40:00;15.75;;;11.40;;
6259;SDS011;3163;51.516;4.000;2023-04-08T13:42:26;12.70;;;9.73;;
6259;SDS011;3163;51.516;4.000;2023-04-08T13:44:51;14.87;;;10.83;;
6259;SDS011;3163;51.516;4.000;2023-04-08T13:47:17;12.97;;;9.73;;
6259;SDS011;3163;51.516;4.000;2023-04-08T13:49:43;10.63;;;8.43;;
6259;SDS011;3163;51.516;4.000;2023-04-08T13:52:08;8.97;;;7.70;;
6259;SDS011;3163;51.516;4.000;2023-04-08T13:54:34;12.70;;;10.00;;
6259;SDS011;3163;51.516;4.000;2023-04-08T13:57:00;11.00;;;8.17;;
6259;SDS011;3163;51.516;4.000;2023-04-08T13:59:26;10.50;;;7.63;;
6259;SDS011;3163;51.516;4.000;2023-04-08T14:01:51;8.63;;;6.87;;
6259;SDS011;3163;51.516;4.000;2023-04-08T14:04:20;12.30;;;9.23;;
6259;SDS011;3163;51.516;4.000;2023-04-08T14:06:46;12.57;;;7.57;;
6259;SDS011;3163;51.516;4.000;2023-04-08T14:09:14;10.90;;;8.00;;
6259;SDS011;3163;51.516;4.000;2023-04-08T14:11:41;10.40;;;7.30;;
6259;SDS011;3163;51.516;4.000;2023-04-08T14:14:07;9.00;;;6.63;;
6259;SDS011;3163;51.516;4.000;2023-04-08T14:16:32;8.97;;;7.07;;
6259;SDS011;3163;51.516;4.000;2023-04-08T14:18:59;11.67;;;8.67;;
6259;SDS011;3163;51.516;4.000;2023-04-08T14:21:25;10.67;;;7.87;;
6259;SDS011;3163;51.516;4.000;2023-04-08T14:23:51;13.70;;;9.73;;
6259;SDS011;3163;51.516;4.000;2023-04-08T14:26:17;11.00;;;8.03;;
6259;SDS011;3163;51.516;4.000;2023-04-08T14:28:42;11.37;;;8.23;;
6259;SDS011;3163;51.516;4.000;2023-04-08T14:31:08;13.67;;;9.93;;
6259;SDS011;3163;51.516;4.000;2023-04-08T14:33:34;13.47;;;9.43;;
6259;SDS011;3163;51.516;4.000;2023-04-08T14:36:00;13.27;;;8.27;;
6259;SDS011;3163;51.516;4.000;2023-04-08T14:38:25;11.50;;;8.03;;
6259;SDS011;3163;51.516;4.000;2023-04-08T14:40:51;11.47;;;9.03;;
6259;SDS011;3163;51.516;4.000;2023-04-08T14:43:18;10.50;;;7.43;;
6259;SDS011;3163;51.516;4.000;2023-04-08T14:45:44;16.98;;;11.18;;
6259;SDS011;3163;51.516;4.000;2023-04-08T14:48:10;12.87;;;9.27;;
6259;SDS011;3163;51.516;4.000;2023-04-08T14:50:35;12.30;;;9.07;;
6259;SDS011;3163;51.516;4.000;2023-04-08T14:53:01;10.73;;;8.37;;
6259;SDS011;3163;51.516;4.000;2023-04-08T14:55:27;10.37;;;7.33;;
6259;SDS011;3163;51.516;4.000;2023-04-08T14:57:53;14.27;;;10.07;;
6259;SDS011;3163;51.516;4.000;2023-04-08T15:00:20;12.87;;;8.83;;
6259;SDS011;3163;51.516;4.000;2023-04-08T15:02:45;13.37;;;8.27;;
6259;SDS011;3163;51.516;4.000;2023-04-08T15:05:11;10.23;;;6.80;;
6259;SDS011;3163;51.516;4.000;2023-04-08T15:07:36;8.60;;;6.43;;
6259;SDS011;3163;51.516;4.000;2023-04-08T15:10:02;11.45;;;8.52;;
6259;SDS011;3163;51.516;4.000;2023-04-08T15:12:28;8.00;;;6.77;;
6259;SDS011;3163;51.516;4.000;2023-04-08T15:14:53;8.17;;;5.67;;
6259;SDS011;3163;51.516;4.000;2023-04-08T15:17:19;7.80;;;4.93;;
6259;SDS011;3163;51.516;4.000;2023-04-08T15:19:44;10.17;;;5.20;;
6259;SDS011;3163;51.516;4.000;2023-04-08T15:22:10;9.83;;;7.90;;
6259;SDS011;3163;51.516;4.000;2023-04-08T15:24:36;14.60;;;6.60;;
6259;SDS011;3163;51.516;4.000;2023-04-08T15:27:02;6.73;;;4.53;;
6259;SDS011;3163;51.516;4.000;2023-04-08T15:29:28;8.93;;;5.83;;
6259;SDS011;3163;51.516;4.000;2023-04-08T15:31:53;9.27;;;7.23;;